This is the latest recevied weather packets stored in our database for station/object SA4AGM-10. If no packets are shown the sender has not sent any weather packets the latest 10 day(s).
| Time | Temp. | Humidity | Pressure | Rain* | Wind** | Luminosity | Snow |
|---|---|---|---|---|---|---|---|
| 1777496002 | 10° C | 88% | 1026.1 hPa | - | - | - | - |
| 1777495102 | 9.44° C | 95% | 1025.9 hPa | - | - | - | - |
| 1777494202 | 10° C | 92% | 1025.8 hPa | - | - | - | - |
| 1777493302 | 10° C | 91% | 1026 hPa | - | - | - | - |
| 1777492402 | 10° C | 91% | 1026 hPa | - | - | - | - |
| 1777491502 | 10.56° C | 83% | 1025.9 hPa | - | - | - | - |
| 1777490601 | 10.56° C | 83% | 1025.8 hPa | - | - | - | - |
| 1777489701 | 10.56° C | 84% | 1025.8 hPa | - | - | - | - |
| 1777488801 | 10.56° C | 79% | 1025.6 hPa | - | - | - | - |
| 1777487901 | 10.56° C | 75% | 1025.5 hPa | - | - | - | - |
| 1777487001 | 11.11° C | 75% | 1025.4 hPa | - | - | - | - |
| 1777486101 | 11.67° C | 71% | 1025.4 hPa | - | - | - | - |
| 1777485201 | 12.22° C | 71% | 1025.5 hPa | - | - | - | - |
| 1777484301 | 12.78° C | 62% | 1025.4 hPa | - | - | - | - |
| 1777483401 | 12.78° C | 60% | 1025.5 hPa | - | - | - | - |
| 1777482500 | 13.33° C | 59% | 1025.6 hPa | - | - | - | - |
| 1777481600 | 13.33° C | 59% | 1025.7 hPa | - | - | - | - |
| 1777480700 | 13.89° C | 58% | 1025.8 hPa | - | - | - | - |
| 1777479800 | 13.89° C | 55% | 1025.8 hPa | - | - | - | - |
| 1777478900 | 14.44° C | 54% | 1026 hPa | - | - | - | - |
| 1777478000 | 14.44° C | 52% | 1026.1 hPa | - | - | - | - |
| 1777477100 | 13.89° C | 57% | 1026.4 hPa | - | - | - | - |
| 1777476200 | 13.89° C | 56% | 1026.5 hPa | - | - | - | - |
| 1777475300 | 13.33° C | 58% | 1026.7 hPa | - | - | - | - |
| 1777474400 | 12.78° C | 59% | 1026.8 hPa | - | - | - | - |
* Rain since midnight (hover to see other rain measurements)
** Current wind speed in m/s (hover to see current wind gust speed)